sensor_id;sensor_type;location;lat;lon;timestamp;P1;durP1;ratioP1;P2;durP2;ratioP2
8058;SDS011;4072;42.668;23.396;2023-05-07T00:00:05;7.40;;;6.20;;
8058;SDS011;4072;42.668;23.396;2023-05-07T00:02:35;11.37;;;8.17;;
8058;SDS011;4072;42.668;23.396;2023-05-07T00:05:04;10.03;;;8.67;;
8058;SDS011;4072;42.668;23.396;2023-05-07T00:07:34;9.50;;;8.60;;
8058;SDS011;4072;42.668;23.396;2023-05-07T00:10:03;8.87;;;7.90;;
8058;SDS011;4072;42.668;23.396;2023-05-07T00:12:34;8.33;;;7.53;;
8058;SDS011;4072;42.668;23.396;2023-05-07T00:15:03;9.40;;;7.20;;
8058;SDS011;4072;42.668;23.396;2023-05-07T00:17:32;6.53;;;5.43;;
8058;SDS011;4072;42.668;23.396;2023-05-07T00:20:04;5.57;;;5.07;;
8058;SDS011;4072;42.668;23.396;2023-05-07T00:22:32;6.20;;;4.57;;
8058;SDS011;4072;42.668;23.396;2023-05-07T00:25:01;4.57;;;4.17;;
8058;SDS011;4072;42.668;23.396;2023-05-07T00:27:29;7.17;;;4.50;;
8058;SDS011;4072;42.668;23.396;2023-05-07T00:29:59;5.57;;;5.00;;
8058;SDS011;4072;42.668;23.396;2023-05-07T00:32:27;5.33;;;4.83;;
8058;SDS011;4072;42.668;23.396;2023-05-07T00:34:56;5.17;;;4.67;;
8058;SDS011;4072;42.668;23.396;2023-05-07T00:37:24;7.03;;;5.00;;
8058;SDS011;4072;42.668;23.396;2023-05-07T00:39:54;7.50;;;5.10;;
8058;SDS011;4072;42.668;23.396;2023-05-07T00:42:22;5.60;;;5.20;;
8058;SDS011;4072;42.668;23.396;2023-05-07T00:44:50;9.20;;;5.03;;
8058;SDS011;4072;42.668;23.396;2023-05-07T00:47:20;5.13;;;4.67;;
8058;SDS011;4072;42.668;23.396;2023-05-07T00:49:49;5.33;;;4.57;;
8058;SDS011;4072;42.668;23.396;2023-05-07T00:52:17;5.83;;;4.33;;
8058;SDS011;4072;42.668;23.396;2023-05-07T00:54:49;5.13;;;4.50;;
8058;SDS011;4072;42.668;23.396;2023-05-07T00:57:17;5.17;;;4.43;;
8058;SDS011;4072;42.668;23.396;2023-05-07T00:59:48;5.33;;;4.83;;
8058;SDS011;4072;42.668;23.396;2023-05-07T01:02:18;6.53;;;5.90;;
8058;SDS011;4072;42.668;23.396;2023-05-07T01:04:47;6.37;;;5.77;;
8058;SDS011;4072;42.668;23.396;2023-05-07T01:07:16;7.40;;;5.70;;
8058;SDS011;4072;42.668;23.396;2023-05-07T01:09:45;6.70;;;6.03;;
8058;SDS011;4072;42.668;23.396;2023-05-07T01:12:13;8.00;;;5.80;;
8058;SDS011;4072;42.668;23.396;2023-05-07T01:14:41;9.77;;;6.57;;
8058;SDS011;4072;42.668;23.396;2023-05-07T01:17:10;6.43;;;5.83;;
8058;SDS011;4072;42.668;23.396;2023-05-07T01:19:39;8.57;;;6.23;;
8058;SDS011;4072;42.668;23.396;2023-05-07T01:22:09;10.33;;;6.53;;
8058;SDS011;4072;42.668;23.396;2023-05-07T01:24:40;9.23;;;6.50;;
8058;SDS011;4072;42.668;23.396;2023-05-07T01:27:10;5.83;;;5.23;;
8058;SDS011;4072;42.668;23.396;2023-05-07T01:29:38;7.57;;;6.63;;
8058;SDS011;4072;42.668;23.396;2023-05-07T01:32:07;9.23;;;7.33;;
8058;SDS011;4072;42.668;23.396;2023-05-07T01:34:35;9.90;;;7.93;;
8058;SDS011;4072;42.668;23.396;2023-05-07T01:37:05;9.20;;;7.87;;
8058;SDS011;4072;42.668;23.396;2023-05-07T01:39:35;10.37;;;9.07;;
8058;SDS011;4072;42.668;23.396;2023-05-07T01:42:07;7.80;;;7.00;;
8058;SDS011;4072;42.668;23.396;2023-05-07T01:44:36;8.40;;;7.60;;
8058;SDS011;4072;42.668;23.396;2023-05-07T01:47:04;8.43;;;7.57;;
8058;SDS011;4072;42.668;23.396;2023-05-07T01:49:35;7.43;;;6.83;;
8058;SDS011;4072;42.668;23.396;2023-05-07T01:52:04;7.07;;;6.33;;
8058;SDS011;4072;42.668;23.396;2023-05-07T01:54:33;8.83;;;7.90;;
8058;SDS011;4072;42.668;23.396;2023-05-07T01:57:01;7.97;;;7.17;;
8058;SDS011;4072;42.668;23.396;2023-05-07T01:59:31;8.50;;;7.63;;
8058;SDS011;4072;42.668;23.396;2023-05-07T02:02:00;8.80;;;7.90;;
8058;SDS011;4072;42.668;23.396;2023-05-07T02:04:29;8.33;;;7.23;;
8058;SDS011;4072;42.668;23.396;2023-05-07T02:06:57;9.93;;;8.90;;
8058;SDS011;4072;42.668;23.396;2023-05-07T02:09:26;7.80;;;7.00;;
8058;SDS011;4072;42.668;23.396;2023-05-07T02:11:54;8.83;;;7.87;;
8058;SDS011;4072;42.668;23.396;2023-05-07T02:14:23;10.00;;;8.80;;
8058;SDS011;4072;42.668;23.396;2023-05-07T02:16:54;9.37;;;8.47;;
8058;SDS011;4072;42.668;23.396;2023-05-07T02:19:22;10.90;;;8.27;;
8058;SDS011;4072;42.668;23.396;2023-05-07T02:21:51;9.00;;;8.20;;
8058;SDS011;4072;42.668;23.396;2023-05-07T02:24:19;10.63;;;8.73;;
8058;SDS011;4072;42.668;23.396;2023-05-07T02:26:47;8.73;;;6.70;;
8058;SDS011;4072;42.668;23.396;2023-05-07T02:29:16;8.97;;;8.17;;
8058;SDS011;4072;42.668;23.396;2023-05-07T02:31:44;9.70;;;8.10;;
8058;SDS011;4072;42.668;23.396;2023-05-07T02:34:15;9.30;;;7.50;;
8058;SDS011;4072;42.668;23.396;2023-05-07T02:36:45;8.83;;;7.87;;
8058;SDS011;4072;42.668;23.396;2023-05-07T02:39:14;8.70;;;7.90;;
8058;SDS011;4072;42.668;23.396;2023-05-07T02:41:44;14.70;;;9.53;;
8058;SDS011;4072;42.668;23.396;2023-05-07T02:44:12;11.03;;;9.70;;
8058;SDS011;4072;42.668;23.396;2023-05-07T02:46:40;10.90;;;9.80;;
8058;SDS011;4072;42.668;23.396;2023-05-07T02:49:09;14.40;;;9.63;;
8058;SDS011;4072;42.668;23.396;2023-05-07T02:51:40;11.83;;;10.53;;
8058;SDS011;4072;42.668;23.396;2023-05-07T02:54:08;12.20;;;9.70;;
8058;SDS011;4072;42.668;23.396;2023-05-07T02:56:37;12.90;;;11.63;;
8058;SDS011;4072;42.668;23.396;2023-05-07T02:59:05;12.90;;;11.47;;
8058;SDS011;4072;42.668;23.396;2023-05-07T03:01:34;12.17;;;10.87;;
8058;SDS011;4072;42.668;23.396;2023-05-07T03:04:03;12.73;;;11.43;;
8058;SDS011;4072;42.668;23.396;2023-05-07T03:06:31;13.53;;;12.20;;
8058;SDS011;4072;42.668;23.396;2023-05-07T03:09:01;16.10;;;11.70;;
8058;SDS011;4072;42.668;23.396;2023-05-07T03:11:29;13.47;;;12.03;;
8058;SDS011;4072;42.668;23.396;2023-05-07T03:13:57;11.63;;;10.43;;
8058;SDS011;4072;42.668;23.396;2023-05-07T03:16:25;14.87;;;13.33;;
8058;SDS011;4072;42.668;23.396;2023-05-07T03:18:53;13.20;;;11.77;;
8058;SDS011;4072;42.668;23.396;2023-05-07T03:21:22;15.60;;;13.43;;
8058;SDS011;4072;42.668;23.396;2023-05-07T03:23:52;16.50;;;11.80;;
8058;SDS011;4072;42.668;23.396;2023-05-07T03:26:22;15.27;;;13.00;;
8058;SDS011;4072;42.668;23.396;2023-05-07T03:28:50;16.17;;;14.03;;
8058;SDS011;4072;42.668;23.396;2023-05-07T03:31:18;14.30;;;12.80;;
8058;SDS011;4072;42.668;23.396;2023-05-07T03:33:51;16.37;;;14.67;;
8058;SDS011;4072;42.668;23.396;2023-05-07T03:36:20;17.40;;;14.17;;
8058;SDS011;4072;42.668;23.396;2023-05-07T03:38:49;15.97;;;14.23;;
8058;SDS011;4072;42.668;23.396;2023-05-07T03:41:17;17.00;;;15.20;;
8058;SDS011;4072;42.668;23.396;2023-05-07T03:43:48;16.17;;;13.07;;
8058;SDS011;4072;42.668;23.396;2023-05-07T03:46:17;14.50;;;13.00;;
8058;SDS011;4072;42.668;23.396;2023-05-07T03:48:45;14.67;;;13.20;;
8058;SDS011;4072;42.668;23.396;2023-05-07T03:51:13;13.30;;;11.90;;
8058;SDS011;4072;42.668;23.396;2023-05-07T03:53:42;13.67;;;12.27;;
8058;SDS011;4072;42.668;23.396;2023-05-07T03:56:11;15.33;;;13.83;;
8058;SDS011;4072;42.668;23.396;2023-05-07T03:58:39;17.20;;;13.63;;
8058;SDS011;4072;42.668;23.396;2023-05-07T04:01:08;15.37;;;12.70;;
8058;SDS011;4072;42.668;23.396;2023-05-07T04:03:37;15.07;;;13.13;;
8058;SDS011;4072;42.668;23.396;2023-05-07T04:06:05;13.50;;;11.63;;
8058;SDS011;4072;42.668;23.396;2023-05-07T04:08:34;13.43;;;12.03;;
8058;SDS011;4072;42.668;23.396;2023-05-07T04:11:02;14.47;;;12.97;;
8058;SDS011;4072;42.668;23.396;2023-05-07T04:13:30;15.03;;;12.70;;
8058;SDS011;4072;42.668;23.396;2023-05-07T04:15:58;15.13;;;13.47;;
8058;SDS011;4072;42.668;23.396;2023-05-07T04:18:30;16.27;;;13.47;;
8058;SDS011;4072;42.668;23.396;2023-05-07T04:20:59;18.53;;;13.30;;
8058;SDS011;4072;42.668;23.396;2023-05-07T04:23:28;15.50;;;12.90;;
8058;SDS011;4072;42.668;23.396;2023-05-07T04:25:56;17.10;;;13.63;;
8058;SDS011;4072;42.668;23.396;2023-05-07T04:28:25;13.73;;;12.27;;
8058;SDS011;4072;42.668;23.396;2023-05-07T04:30:53;17.33;;;13.57;;
8058;SDS011;4072;42.668;23.396;2023-05-07T04:33:21;15.63;;;11.97;;
8058;SDS011;4072;42.668;23.396;2023-05-07T04:35:51;15.80;;;13.73;;
8058;SDS011;4072;42.668;23.396;2023-05-07T04:38:19;12.93;;;11.63;;
8058;SDS011;4072;42.668;23.396;2023-05-07T04:40:50;15.63;;;11.60;;
8058;SDS011;4072;42.668;23.396;2023-05-07T04:43:18;12.17;;;10.93;;
8058;SDS011;4072;42.668;23.396;2023-05-07T04:45:47;13.53;;;11.93;;
8058;SDS011;4072;42.668;23.396;2023-05-07T04:48:16;15.50;;;11.50;;
8058;SDS011;4072;42.668;23.396;2023-05-07T04:50:47;13.50;;;10.40;;
8058;SDS011;4072;42.668;23.396;2023-05-07T04:53:19;11.87;;;10.33;;
8058;SDS011;4072;42.668;23.396;2023-05-07T04:55:48;9.43;;;8.40;;
8058;SDS011;4072;42.668;23.396;2023-05-07T04:58:16;11.37;;;10.17;;
8058;SDS011;4072;42.668;23.396;2023-05-07T05:00:44;13.67;;;10.30;;
8058;SDS011;4072;42.668;23.396;2023-05-07T05:03:13;12.83;;;10.97;;
8058;SDS011;4072;42.668;23.396;2023-05-07T05:05:41;11.03;;;9.90;;
8058;SDS011;4072;42.668;23.396;2023-05-07T05:08:09;11.10;;;9.97;;
8058;SDS011;4072;42.668;23.396;2023-05-07T05:10:39;11.33;;;10.10;;
8058;SDS011;4072;42.668;23.396;2023-05-07T05:13:09;13.17;;;11.13;;
8058;SDS011;4072;42.668;23.396;2023-05-07T05:15:39;11.53;;;10.13;;
8058;SDS011;4072;42.668;23.396;2023-05-07T05:18:07;11.17;;;9.97;;
8058;SDS011;4072;42.668;23.396;2023-05-07T05:20:35;11.23;;;9.53;;
8058;SDS011;4072;42.668;23.396;2023-05-07T05:23:04;8.90;;;8.00;;
8058;SDS011;4072;42.668;23.396;2023-05-07T05:25:34;12.83;;;9.23;;
8058;SDS011;4072;42.668;23.396;2023-05-07T05:28:07;14.30;;;9.70;;
8058;SDS011;4072;42.668;23.396;2023-05-07T05:30:35;11.10;;;9.87;;
8058;SDS011;4072;42.668;23.396;2023-05-07T05:33:03;10.57;;;9.30;;
8058;SDS011;4072;42.668;23.396;2023-05-07T05:35:31;11.80;;;8.50;;
8058;SDS011;4072;42.668;23.396;2023-05-07T05:38:01;12.97;;;10.30;;
8058;SDS011;4072;42.668;23.396;2023-05-07T05:40:30;9.60;;;8.20;;
8058;SDS011;4072;42.668;23.396;2023-05-07T05:42:58;11.17;;;9.50;;
8058;SDS011;4072;42.668;23.396;2023-05-07T05:45:28;10.80;;;8.47;;
8058;SDS011;4072;42.668;23.396;2023-05-07T05:47:56;10.17;;;9.17;;
8058;SDS011;4072;42.668;23.396;2023-05-07T05:50:25;17.37;;;9.13;;
8058;SDS011;4072;42.668;23.396;2023-05-07T05:52:53;9.53;;;8.53;;
8058;SDS011;4072;42.668;23.396;2023-05-07T05:55:22;12.30;;;8.50;;
8058;SDS011;4072;42.668;23.396;2023-05-07T05:57:50;10.37;;;9.33;;
8058;SDS011;4072;42.668;23.396;2023-05-07T06:00:18;10.17;;;9.03;;
8058;SDS011;4072;42.668;23.396;2023-05-07T06:02:51;11.03;;;9.20;;
8058;SDS011;4072;42.668;23.396;2023-05-07T06:05:20;9.13;;;7.80;;
8058;SDS011;4072;42.668;23.396;2023-05-07T06:07:48;14.03;;;9.33;;
8058;SDS011;4072;42.668;23.396;2023-05-07T06:10:17;10.53;;;8.93;;
8058;SDS011;4072;42.668;23.396;2023-05-07T06:12:45;10.07;;;9.07;;
8058;SDS011;4072;42.668;23.396;2023-05-07T06:15:14;10.33;;;8.93;;
8058;SDS011;4072;42.668;23.396;2023-05-07T06:17:42;10.87;;;9.20;;
8058;SDS011;4072;42.668;23.396;2023-05-07T06:20:13;11.10;;;8.13;;
8058;SDS011;4072;42.668;23.396;2023-05-07T06:22:41;12.50;;;9.20;;
8058;SDS011;4072;42.668;23.396;2023-05-07T06:25:11;11.13;;;9.87;;
8058;SDS011;4072;42.668;23.396;2023-05-07T06:27:39;10.80;;;8.93;;
8058;SDS011;4072;42.668;23.396;2023-05-07T06:30:08;10.30;;;9.10;;
8058;SDS011;4072;42.668;23.396;2023-05-07T06:32:37;9.90;;;8.43;;
8058;SDS011;4072;42.668;23.396;2023-05-07T06:35:07;9.33;;;8.43;;
8058;SDS011;4072;42.668;23.396;2023-05-07T06:37:37;9.83;;;8.50;;
8058;SDS011;4072;42.668;23.396;2023-05-07T06:40:06;9.90;;;8.90;;
8058;SDS011;4072;42.668;23.396;2023-05-07T06:42:35;8.47;;;7.57;;
8058;SDS011;4072;42.668;23.396;2023-05-07T06:45:04;9.17;;;8.27;;
8058;SDS011;4072;42.668;23.396;2023-05-07T06:47:34;8.83;;;7.93;;
8058;SDS011;4072;42.668;23.396;2023-05-07T06:50:03;11.10;;;9.13;;
8058;SDS011;4072;42.668;23.396;2023-05-07T06:52:31;10.43;;;9.43;;
8058;SDS011;4072;42.668;23.396;2023-05-07T06:55:02;12.33;;;11.03;;
8058;SDS011;4072;42.668;23.396;2023-05-07T06:57:32;11.07;;;9.53;;
8058;SDS011;4072;42.668;23.396;2023-05-07T07:00:01;11.03;;;9.37;;
8058;SDS011;4072;42.668;23.396;2023-05-07T07:02:30;11.63;;;9.83;;
8058;SDS011;4072;42.668;23.396;2023-05-07T07:04:59;11.27;;;9.37;;
8058;SDS011;4072;42.668;23.396;2023-05-07T07:07:29;9.47;;;8.67;;
8058;SDS011;4072;42.668;23.396;2023-05-07T07:09:58;11.47;;;9.27;;
8058;SDS011;4072;42.668;23.396;2023-05-07T07:12:28;10.60;;;8.50;;
8058;SDS011;4072;42.668;23.396;2023-05-07T07:14:56;8.77;;;7.90;;
8058;SDS011;4072;42.668;23.396;2023-05-07T07:17:24;12.77;;;9.37;;
8058;SDS011;4072;42.668;23.396;2023-05-07T07:19:53;9.97;;;8.70;;
8058;SDS011;4072;42.668;23.396;2023-05-07T07:22:21;10.00;;;8.90;;
8058;SDS011;4072;42.668;23.396;2023-05-07T07:24:49;9.17;;;8.27;;
8058;SDS011;4072;42.668;23.396;2023-05-07T07:27:19;8.07;;;7.37;;
8058;SDS011;4072;42.668;23.396;2023-05-07T07:29:49;9.30;;;8.43;;
8058;SDS011;4072;42.668;23.396;2023-05-07T07:32:17;11.10;;;8.83;;
8058;SDS011;4072;42.668;23.396;2023-05-07T07:34:46;9.47;;;8.53;;
8058;SDS011;4072;42.668;23.396;2023-05-07T07:37:14;9.40;;;8.40;;
8058;SDS011;4072;42.668;23.396;2023-05-07T07:39:42;11.40;;;8.73;;
8058;SDS011;4072;42.668;23.396;2023-05-07T07:42:10;9.90;;;8.83;;
8058;SDS011;4072;42.668;23.396;2023-05-07T07:44:39;11.90;;;8.97;;
8058;SDS011;4072;42.668;23.396;2023-05-07T07:47:09;12.47;;;9.47;;
8058;SDS011;4072;42.668;23.396;2023-05-07T07:49:38;10.10;;;9.10;;
8058;SDS011;4072;42.668;23.396;2023-05-07T07:52:06;9.93;;;8.67;;
8058;SDS011;4072;42.668;23.396;2023-05-07T07:54:34;12.67;;;8.43;;
8058;SDS011;4072;42.668;23.396;2023-05-07T07:57:02;11.00;;;8.37;;
8058;SDS011;4072;42.668;23.396;2023-05-07T07:59:30;10.43;;;8.97;;
8058;SDS011;4072;42.668;23.396;2023-05-07T08:01:58;9.30;;;8.40;;
8058;SDS011;4072;42.668;23.396;2023-05-07T08:04:29;9.83;;;7.80;;
8058;SDS011;4072;42.668;23.396;2023-05-07T08:06:59;8.97;;;8.07;;
8058;SDS011;4072;42.668;23.396;2023-05-07T08:09:28;10.13;;;8.07;;
8058;SDS011;4072;42.668;23.396;2023-05-07T08:11:58;13.60;;;10.17;;
8058;SDS011;4072;42.668;23.396;2023-05-07T08:14:26;10.37;;;8.60;;
8058;SDS011;4072;42.668;23.396;2023-05-07T08:16:55;9.33;;;7.83;;
8058;SDS011;4072;42.668;23.396;2023-05-07T08:19:23;10.20;;;9.20;;
8058;SDS011;4072;42.668;23.396;2023-05-07T08:21:54;13.83;;;8.73;;
8058;SDS011;4072;42.668;23.396;2023-05-07T08:24:23;11.93;;;8.93;;
8058;SDS011;4072;42.668;23.396;2023-05-07T08:26:51;10.13;;;8.40;;
8058;SDS011;4072;42.668;23.396;2023-05-07T08:29:19;9.47;;;8.57;;
8058;SDS011;4072;42.668;23.396;2023-05-07T08:31:47;10.83;;;8.57;;
8058;SDS011;4072;42.668;23.396;2023-05-07T08:34:17;9.57;;;8.03;;
8058;SDS011;4072;42.668;23.396;2023-05-07T08:36:45;9.53;;;8.07;;
8058;SDS011;4072;42.668;23.396;2023-05-07T08:39:16;9.13;;;7.03;;
8058;SDS011;4072;42.668;23.396;2023-05-07T08:41:45;8.63;;;7.60;;
8058;SDS011;4072;42.668;23.396;2023-05-07T08:44:16;7.60;;;6.90;;
8058;SDS011;4072;42.668;23.396;2023-05-07T08:46:49;8.33;;;6.47;;
8058;SDS011;4072;42.668;23.396;2023-05-07T08:49:23;10.00;;;7.17;;
8058;SDS011;4072;42.668;23.396;2023-05-07T08:51:51;9.10;;;6.37;;
8058;SDS011;4072;42.668;23.396;2023-05-07T08:54:21;6.80;;;6.13;;
8058;SDS011;4072;42.668;23.396;2023-05-07T08:56:49;8.43;;;5.53;;
8058;SDS011;4072;42.668;23.396;2023-05-07T08:59:18;5.20;;;4.70;;
8058;SDS011;4072;42.668;23.396;2023-05-07T09:01:47;5.73;;;4.47;;
8058;SDS011;4072;42.668;23.396;2023-05-07T09:04:16;5.53;;;5.03;;
8058;SDS011;4072;42.668;23.396;2023-05-07T09:06:45;5.00;;;4.60;;
8058;SDS011;4072;42.668;23.396;2023-05-07T09:09:14;7.13;;;4.70;;
8058;SDS011;4072;42.668;23.396;2023-05-07T09:11:48;5.40;;;4.90;;
8058;SDS011;4072;42.668;23.396;2023-05-07T09:14:17;3.00;;;2.70;;
8058;SDS011;4072;42.668;23.396;2023-05-07T09:16:49;4.93;;;4.43;;
8058;SDS011;4072;42.668;23.396;2023-05-07T09:19:21;5.07;;;3.83;;
8058;SDS011;4072;42.668;23.396;2023-05-07T09:21:57;5.53;;;3.73;;
8058;SDS011;4072;42.668;23.396;2023-05-07T09:24:30;5.73;;;4.27;;
8058;SDS011;4072;42.668;23.396;2023-05-07T09:27:02;5.33;;;4.13;;
8058;SDS011;4072;42.668;23.396;2023-05-07T09:29:31;6.47;;;4.20;;
8058;SDS011;4072;42.668;23.396;2023-05-07T09:32:02;7.13;;;4.57;;
8058;SDS011;4072;42.668;23.396;2023-05-07T09:34:33;4.20;;;3.80;;
8058;SDS011;4072;42.668;23.396;2023-05-07T09:37:04;10.67;;;6.77;;
8058;SDS011;4072;42.668;23.396;2023-05-07T09:39:40;5.70;;;4.15;;
8058;SDS011;4072;42.668;23.396;2023-05-07T09:42:10;14.97;;;4.43;;
8058;SDS011;4072;42.668;23.396;2023-05-07T09:44:41;5.85;;;3.85;;
8058;SDS011;4072;42.668;23.396;2023-05-07T09:47:11;5.45;;;3.67;;
8058;SDS011;4072;42.668;23.396;2023-05-07T09:49:47;7.63;;;3.83;;
8058;SDS011;4072;42.668;23.396;2023-05-07T09:52:16;6.80;;;3.77;;
8058;SDS011;4072;42.668;23.396;2023-05-07T09:54:45;6.47;;;4.60;;
8058;SDS011;4072;42.668;23.396;2023-05-07T09:57:16;7.20;;;3.93;;
8058;SDS011;4072;42.668;23.396;2023-05-07T09:59:47;4.68;;;4.28;;
8058;SDS011;4072;42.668;23.396;2023-05-07T10:02:17;6.65;;;4.03;;
8058;SDS011;4072;42.668;23.396;2023-05-07T10:04:48;6.63;;;3.87;;
8058;SDS011;4072;42.668;23.396;2023-05-07T10:07:16;4.23;;;3.83;;
8058;SDS011;4072;42.668;23.396;2023-05-07T10:09:46;4.80;;;3.57;;
8058;SDS011;4072;42.668;23.396;2023-05-07T10:12:16;3.97;;;3.67;;
8058;SDS011;4072;42.668;23.396;2023-05-07T10:14:46;3.90;;;3.40;;
8058;SDS011;4072;42.668;23.396;2023-05-07T10:17:16;3.77;;;3.40;;
8058;SDS011;4072;42.668;23.396;2023-05-07T10:19:45;5.70;;;3.63;;
8058;SDS011;4072;42.668;23.396;2023-05-07T10:22:13;5.37;;;3.80;;
8058;SDS011;4072;42.668;23.396;2023-05-07T10:24:43;6.63;;;3.73;;
8058;SDS011;4072;42.668;23.396;2023-05-07T10:27:17;3.63;;;3.33;;
8058;SDS011;4072;42.668;23.396;2023-05-07T10:29:49;4.43;;;3.90;;
8058;SDS011;4072;42.668;23.396;2023-05-07T10:32:30;5.17;;;3.37;;
8058;SDS011;4072;42.668;23.396;2023-05-07T10:35:06;6.55;;;3.00;;
8058;SDS011;4072;42.668;23.396;2023-05-07T10:37:39;6.07;;;5.30;;
8058;SDS011;4072;42.668;23.396;2023-05-07T10:40:09;5.22;;;3.50;;
8058;SDS011;4072;42.668;23.396;2023-05-07T10:42:41;4.07;;;3.67;;
8058;SDS011;4072;42.668;23.396;2023-05-07T10:45:23;6.63;;;3.70;;
8058;SDS011;4072;42.668;23.396;2023-05-07T10:48:10;6.85;;;3.55;;
8058;SDS011;4072;42.668;23.396;2023-05-07T10:53:48;5.20;;;3.88;;
8058;SDS011;4072;42.668;23.396;2023-05-07T10:56:26;3.58;;;3.28;;
8058;SDS011;4072;42.668;23.396;2023-05-07T10:58:57;3.53;;;2.92;;
8058;SDS011;4072;42.668;23.396;2023-05-07T11:01:58;3.60;;;2.97;;
8058;SDS011;4072;42.668;23.396;2023-05-07T11:04:29;3.25;;;2.95;;
8058;SDS011;4072;42.668;23.396;2023-05-07T11:10:04;3.28;;;2.95;;
8058;SDS011;4072;42.668;23.396;2023-05-07T11:12:49;3.50;;;3.20;;
8058;SDS011;4072;42.668;23.396;2023-05-07T11:18:18;3.60;;;3.30;;
8058;SDS011;4072;42.668;23.396;2023-05-07T11:20:48;3.40;;;3.10;;
8058;SDS011;4072;42.668;23.396;2023-05-07T11:26:27;3.87;;;3.57;;
8058;SDS011;4072;42.668;23.396;2023-05-07T11:28:57;2.90;;;2.70;;
8058;SDS011;4072;42.668;23.396;2023-05-07T11:31:28;5.47;;;3.73;;
8058;SDS011;4072;42.668;23.396;2023-05-07T11:33:57;4.38;;;3.97;;
8058;SDS011;4072;42.668;23.396;2023-05-07T11:36:30;4.87;;;3.30;;
8058;SDS011;4072;42.668;23.396;2023-05-07T11:39:00;5.00;;;3.95;;
8058;SDS011;4072;42.668;23.396;2023-05-07T11:41:35;4.28;;;3.90;;
8058;SDS011;4072;42.668;23.396;2023-05-07T11:44:04;4.43;;;3.25;;
8058;SDS011;4072;42.668;23.396;2023-05-07T11:46:34;3.10;;;2.90;;
8058;SDS011;4072;42.668;23.396;2023-05-07T11:49:02;3.83;;;3.53;;
8058;SDS011;4072;42.668;23.396;2023-05-07T11:51:31;3.60;;;3.30;;
8058;SDS011;4072;42.668;23.396;2023-05-07T11:53:59;3.92;;;3.63;;
8058;SDS011;4072;42.668;23.396;2023-05-07T11:56:27;4.25;;;3.38;;
8058;SDS011;4072;42.668;23.396;2023-05-07T11:58:55;4.22;;;3.70;;
8058;SDS011;4072;42.668;23.396;2023-05-07T12:01:26;4.63;;;4.18;;
8058;SDS011;4072;42.668;23.396;2023-05-07T12:03:56;4.90;;;4.50;;
8058;SDS011;4072;42.668;23.396;2023-05-07T12:06:24;5.82;;;3.45;;
8058;SDS011;4072;42.668;23.396;2023-05-07T12:08:53;4.55;;;3.75;;
8058;SDS011;4072;42.668;23.396;2023-05-07T12:11:22;3.88;;;3.50;;
8058;SDS011;4072;42.668;23.396;2023-05-07T12:13:53;3.72;;;3.42;;
8058;SDS011;4072;42.668;23.396;2023-05-07T12:16:26;5.10;;;3.88;;
8058;SDS011;4072;42.668;23.396;2023-05-07T12:18:56;5.85;;;3.95;;
8058;SDS011;4072;42.668;23.396;2023-05-07T12:21:25;4.55;;;4.03;;
8058;SDS011;4072;42.668;23.396;2023-05-07T12:23:53;4.32;;;3.60;;
8058;SDS011;4072;42.668;23.396;2023-05-07T12:26:23;4.30;;;3.65;;
8058;SDS011;4072;42.668;23.396;2023-05-07T12:28:52;4.43;;;3.72;;
8058;SDS011;4072;42.668;23.396;2023-05-07T12:31:20;4.60;;;3.50;;
8058;SDS011;4072;42.668;23.396;2023-05-07T12:33:49;4.25;;;3.50;;
8058;SDS011;4072;42.668;23.396;2023-05-07T12:36:19;3.50;;;3.20;;
8058;SDS011;4072;42.668;23.396;2023-05-07T12:38:49;3.83;;;3.53;;
8058;SDS011;4072;42.668;23.396;2023-05-07T12:41:17;5.55;;;3.95;;
8058;SDS011;4072;42.668;23.396;2023-05-07T12:43:52;4.60;;;3.72;;
8058;SDS011;4072;42.668;23.396;2023-05-07T12:46:24;3.65;;;3.35;;
8058;SDS011;4072;42.668;23.396;2023-05-07T12:48:52;3.80;;;3.50;;
8058;SDS011;4072;42.668;23.396;2023-05-07T12:51:22;4.07;;;3.67;;
8058;SDS011;4072;42.668;23.396;2023-05-07T12:53:52;4.00;;;3.60;;
8058;SDS011;4072;42.668;23.396;2023-05-07T12:56:23;3.33;;;2.58;;
8058;SDS011;4072;42.668;23.396;2023-05-07T12:58:51;3.10;;;2.90;;
8058;SDS011;4072;42.668;23.396;2023-05-07T13:01:28;4.68;;;2.90;;
8058;SDS011;4072;42.668;23.396;2023-05-07T13:04:00;2.90;;;2.53;;
8058;SDS011;4072;42.668;23.396;2023-05-07T13:06:31;3.53;;;3.22;;
8058;SDS011;4072;42.668;23.396;2023-05-07T13:08:59;4.55;;;2.58;;
8058;SDS011;4072;42.668;23.396;2023-05-07T13:11:27;2.78;;;2.53;;
8058;SDS011;4072;42.668;23.396;2023-05-07T13:13:55;3.10;;;2.83;;
8058;SDS011;4072;42.668;23.396;2023-05-07T13:16:24;3.08;;;2.85;;
8058;SDS011;4072;42.668;23.396;2023-05-07T13:18:52;3.13;;;2.70;;
8058;SDS011;4072;42.668;23.396;2023-05-07T13:21:20;2.70;;;2.50;;
8058;SDS011;4072;42.668;23.396;2023-05-07T13:23:50;2.42;;;2.22;;
8058;SDS011;4072;42.668;23.396;2023-05-07T13:26:18;3.15;;;2.85;;
8058;SDS011;4072;42.668;23.396;2023-05-07T13:28:53;4.13;;;3.00;;
8058;SDS011;4072;42.668;23.396;2023-05-07T13:31:21;4.65;;;2.90;;
8058;SDS011;4072;42.668;23.396;2023-05-07T13:33:52;2.88;;;2.38;;
8058;SDS011;4072;42.668;23.396;2023-05-07T13:36:23;2.72;;;2.53;;
8058;SDS011;4072;42.668;23.396;2023-05-07T13:38:53;4.18;;;2.67;;
8058;SDS011;4072;42.668;23.396;2023-05-07T13:41:21;2.60;;;2.40;;
8058;SDS011;4072;42.668;23.396;2023-05-07T13:43:50;2.40;;;2.05;;
8058;SDS011;4072;42.668;23.396;2023-05-07T13:46:18;3.00;;;2.53;;
8058;SDS011;4072;42.668;23.396;2023-05-07T13:48:48;2.30;;;2.10;;
8058;SDS011;4072;42.668;23.396;2023-05-07T13:51:17;2.50;;;2.30;;
8058;SDS011;4072;42.668;23.396;2023-05-07T13:53:45;3.42;;;2.67;;
8058;SDS011;4072;42.668;23.396;2023-05-07T13:56:15;2.80;;;2.60;;
8058;SDS011;4072;42.668;23.396;2023-05-07T13:58:43;4.60;;;2.88;;
8058;SDS011;4072;42.668;23.396;2023-05-07T14:01:25;2.90;;;2.53;;
8058;SDS011;4072;42.668;23.396;2023-05-07T14:03:54;2.95;;;2.40;;
8058;SDS011;4072;42.668;23.396;2023-05-07T14:06:23;3.63;;;3.33;;
8058;SDS011;4072;42.668;23.396;2023-05-07T14:08:51;3.15;;;2.85;;
8058;SDS011;4072;42.668;23.396;2023-05-07T14:11:21;4.07;;;2.80;;
8058;SDS011;4072;42.668;23.396;2023-05-07T14:13:52;2.20;;;2.10;;
8058;SDS011;4072;42.668;23.396;2023-05-07T14:16:20;3.17;;;2.88;;
8058;SDS011;4072;42.668;23.396;2023-05-07T14:18:48;2.90;;;2.60;;
8058;SDS011;4072;42.668;23.396;2023-05-07T14:21:17;3.88;;;2.40;;
8058;SDS011;4072;42.668;23.396;2023-05-07T14:23:46;3.30;;;3.10;;
8058;SDS011;4072;42.668;23.396;2023-05-07T14:26:15;2.70;;;2.50;;
8058;SDS011;4072;42.668;23.396;2023-05-07T14:28:45;2.58;;;2.13;;
8058;SDS011;4072;42.668;23.396;2023-05-07T14:31:13;2.70;;;2.50;;
8058;SDS011;4072;42.668;23.396;2023-05-07T14:33:41;2.95;;;2.75;;
8058;SDS011;4072;42.668;23.396;2023-05-07T14:36:10;4.03;;;3.22;;
8058;SDS011;4072;42.668;23.396;2023-05-07T14:38:41;3.05;;;2.53;;
8058;SDS011;4072;42.668;23.396;2023-05-07T14:41:09;4.05;;;3.13;;
8058;SDS011;4072;42.668;23.396;2023-05-07T14:43:37;5.22;;;2.92;;
8058;SDS011;4072;42.668;23.396;2023-05-07T14:46:07;4.82;;;2.88;;
8058;SDS011;4072;42.668;23.396;2023-05-07T14:48:37;2.80;;;2.60;;
8058;SDS011;4072;42.668;23.396;2023-05-07T14:51:05;2.70;;;2.50;;
8058;SDS011;4072;42.668;23.396;2023-05-07T14:53:33;4.25;;;2.80;;
8058;SDS011;4072;42.668;23.396;2023-05-07T14:56:02;4.72;;;3.10;;
8058;SDS011;4072;42.668;23.396;2023-05-07T14:58:30;2.90;;;2.70;;
8058;SDS011;4072;42.668;23.396;2023-05-07T15:01:02;6.78;;;2.97;;
8058;SDS011;4072;42.668;23.396;2023-05-07T15:03:33;2.95;;;2.75;;
8058;SDS011;4072;42.668;23.396;2023-05-07T15:06:03;2.70;;;2.50;;
8058;SDS011;4072;42.668;23.396;2023-05-07T15:08:32;3.03;;;2.78;;
8058;SDS011;4072;42.668;23.396;2023-05-07T15:11:01;2.80;;;2.60;;
8058;SDS011;4072;42.668;23.396;2023-05-07T15:13:30;6.07;;;4.60;;
8058;SDS011;4072;42.668;23.396;2023-05-07T15:15:58;3.90;;;2.63;;
8058;SDS011;4072;42.668;23.396;2023-05-07T15:18:26;3.00;;;2.67;;
8058;SDS011;4072;42.668;23.396;2023-05-07T15:20:57;3.92;;;2.70;;